Overview Statistics Trail Chart Weather Telemetry Raw packets
 

This is the latest recevied weather packets stored in our database for station/object W0CHP-13. If no packets are shown the sender has not sent any weather packets the latest 10 day(s).

<< 28 29 30 31 32 33 34 >>
Time Temp. Humidity Pressure Rain* Wind** Luminosity Snow
1788275416 26.11° C 80% 1013.3 hPa 0 mm - 456 W/m² -
1788274817 25.56° C 83% 1013.4 hPa 0 mm - 430 W/m² -
1788274233 25° C 83% 1013.4 hPa 0 mm - 401 W/m² -
1788273615 24.44° C 87% 1013.4 hPa 0 mm - 336 W/m² -
1788273018 23.89° C 90% 1013.3 hPa 0 mm - 330 W/m² -
1788272417 22.78° C 90% 1013.4 hPa 0 mm - 131 W/m² -
1788271818 22.78° C 90% 1013.4 hPa 0 mm - 106 W/m² -
1788271216 22.78° C 90% 1013.4 hPa 0 mm - 119 W/m² -
1788270618 22.78° C 92% 1013.4 hPa 0 mm - 132 W/m² -
1788270016 22.78° C 93% 1013.4 hPa 0 mm - 112 W/m² -
1788269438 22.22° C 93% 1013.4 hPa 0 mm - 106 W/m² -
1788268816 22.22° C 95% 1013.4 hPa 0 mm - 94 W/m² -
1788268215 22.22° C 97% 1013.4 hPa 0 mm - 83 W/m² -
1788267619 22.22° C 96% 1013.4 hPa 0 mm - 57 W/m² -
1788267016 22.22° C 94% 1013.3 hPa 0 mm - 59 W/m² -
1788266415 22.22° C 93% 1013 hPa 0 mm - 50 W/m² -
1788265816 21.67° C 94% 1013 hPa 0 mm - 42 W/m² -
1788265218 21.67° C 97% 1013 hPa 0 mm - 36 W/m² -
1788264616 21.67° C 96% 1013 hPa 0 mm - 26 W/m² -
1788264026 21.67° C 96% 1012.7 hPa 0.25 mm - 20 W/m² -
1788263416 21.67° C 96% 1012.7 hPa 1.52 mm - 15 W/m² -
1788262818 21.67° C 95% 1012.3 hPa 2.03 mm - 6 W/m² -
1788262220 21.67° C 94% 1012.7 hPa 4.57 mm - 3 W/m² -
1788261618 22.22° C 94% 1012.6 hPa 5.33 mm - 1 W/m² -
1788261017 22.22° C 93% 1012.3 hPa 13.46 mm - 0 W/m² -

* Rain latest hour (hover to see other rain measurements)
** Current wind speed in m/s (hover to see current wind gust speed)